Time;durP1;ratioP1;P1;durP2;ratioP2;P2;SDS_P1;SDS_P2;PMS_P1;PMS_P2;Temp;Humidity;BMP_temperature;BMP_pressure;BME280_temperature;BME280_humidity;BME280_pressure;Samples;Min_cycle;Max_cycle;Signal;HPM_P1;HPM_P2
2022/03/16 00:01:03;;;;;;;50.10;31.77;;;;;;;7.02;73.07;101541.28;5072978;28;20029;-62
2022/03/16 00:03:29;;;;;;;59.13;35.00;;;;;;;6.91;74.42;101538.53;5072988;28;20094;-62
2022/03/16 00:05:54;;;;;;;55.88;34.28;;;;;;;6.91;75.06;101542.91;5073595;28;20396;-62
2022/03/16 00:08:20;;;;;;;50.60;30.45;;;;;;;7.28;73.60;101545.91;5072884;28;20036;-62
2022/03/16 00:10:45;;;;;;;53.53;31.80;;;;;;;6.99;74.41;101545.59;5072666;28;20039;-62
2022/03/16 00:13:10;;;;;;;55.72;34.25;;;;;;;7.00;74.67;101542.13;5072723;28;20120;-62
2022/03/16 00:15:36;;;;;;;48.45;29.33;;;;;;;6.99;74.87;101537.78;5073276;28;20035;-62
2022/03/16 00:18:01;;;;;;;50.40;29.92;;;;;;;7.06;74.33;101537.84;5072721;28;20036;-63
2022/03/16 00:20:27;;;;;;;52.53;30.95;;;;;;;7.08;74.28;101538.72;5071741;28;20123;-62
2022/03/16 00:22:52;;;;;;;52.85;32.60;;;;;;;7.08;74.44;101525.66;5073119;28;20361;-62
2022/03/16 00:25:17;;;;;;;47.95;29.00;;;;;;;7.14;74.61;101536.19;5072650;28;20028;-62
2022/03/16 00:27:43;;;;;;;46.53;29.20;;;;;;;7.59;72.78;101534.03;5074513;28;20032;-62
2022/03/16 00:30:09;;;;;;;47.58;28.23;;;;;;;7.37;72.93;101533.78;5076384;28;20055;-62
2022/03/16 00:32:35;;;;;;;54.28;32.08;;;;;;;7.27;73.75;101531.09;5056553;28;20040;-62
2022/03/16 00:35:00;;;;;;;45.78;28.73;;;;;;;7.27;74.02;101536.34;5075972;28;20060;-62
2022/03/16 00:37:27;;;;;;;49.80;30.77;;;;;;;7.25;74.82;101536.28;5076181;28;20036;-62
2022/03/16 00:39:52;;;;;;;49.05;30.70;;;;;;;7.41;73.69;101529.47;5076642;28;20036;-62
2022/03/16 00:42:18;;;;;;;49.53;30.05;;;;;;;7.71;71.82;101528.03;5076734;28;20028;-62
2022/03/16 00:44:43;;;;;;;48.75;30.30;;;;;;;7.63;72.53;101526.22;5075828;28;20031;-62
2022/03/16 00:47:09;;;;;;;47.42;28.35;;;;;;;7.77;71.98;101533.28;5075326;28;20033;-62
2022/03/16 00:49:34;;;;;;;46.00;28.73;;;;;;;8.04;71.65;101522.16;5076414;28;20033;-62
2022/03/16 00:52:00;;;;;;;48.72;30.15;;;;;;;7.69;72.42;101525.38;5075837;28;20024;-62
2022/03/16 00:54:26;;;;;;;44.13;27.42;;;;;;;8.08;71.75;101516.94;5058122;28;20037;-62
2022/03/16 00:56:51;;;;;;;49.70;29.60;;;;;;;7.67;72.96;101521.88;5076332;28;20032;-62
2022/03/16 00:59:17;;;;;;;45.28;28.40;;;;;;;8.03;72.43;101518.66;5075801;28;20036;-62
2022/03/16 01:01:42;;;;;;;47.20;29.25;;;;;;;7.71;72.80;101522.78;5074801;28;20150;-63
2022/03/16 01:04:07;;;;;;;46.45;28.55;;;;;;;7.78;72.53;101521.94;5074364;28;20036;-62
2022/03/16 01:06:33;;;;;;;46.92;29.10;;;;;;;7.74;72.74;101528.03;5075620;28;20045;-62
2022/03/16 01:08:58;;;;;;;45.83;28.27;;;;;;;7.68;73.44;101521.00;5076268;28;20063;-62
2022/03/16 01:11:23;;;;;;;51.33;30.08;;;;;;;7.67;73.73;101528.84;5071607;28;20037;-62
2022/03/16 01:13:49;;;;;;;45.97;28.90;;;;;;;7.70;73.57;101521.00;5070458;28;20392;-62
2022/03/16 01:16:14;;;;;;;58.15;33.13;;;;;;;7.55;75.13;101527.88;5074449;28;20457;-62
2022/03/16 01:18:40;;;;;;;51.85;32.08;;;;;;;7.71;74.21;101523.66;5074861;28;20039;-62
2022/03/16 01:21:06;;;;;;;56.25;33.33;;;;;;;7.67;74.30;101527.13;5075516;28;20123;-62
2022/03/16 01:23:34;;;;;;;53.10;31.48;;;;;;;7.73;74.51;101527.16;5057271;28;20384;-62
2022/03/16 01:25:59;;;;;;;48.75;29.00;;;;;;;7.71;74.41;101517.56;5057808;28;20024;-62
2022/03/16 01:28:24;;;;;;;48.38;29.60;;;;;;;7.77;74.30;101525.44;5074715;28;20036;-63
2022/03/16 01:30:50;;;;;;;41.00;25.20;;;;;;;7.77;74.58;101525.44;5076098;28;20090;-62
2022/03/16 01:33:15;;;;;;;42.78;27.02;;;;;;;7.78;74.52;101525.47;5074448;28;20064;-63
2022/03/16 01:35:41;;;;;;;43.08;26.13;;;;;;;7.81;74.40;101524.59;5075199;28;20119;-62
2022/03/16 01:38:06;;;;;;;44.13;25.20;;;;;;;7.75;74.86;101517.59;5074836;28;20040;-63
2022/03/16 01:40:32;;;;;;;38.00;24.00;;;;;;;7.65;75.96;101524.47;5074844;28;20488;-63
2022/03/16 01:42:57;;;;;;;42.72;24.73;;;;;;;7.73;76.18;101526.28;5075090;28;20025;-63
2022/03/16 01:45:22;;;;;;;38.30;22.20;;;;;;;7.51;77.35;101518.25;5075317;28;20031;-63
2022/03/16 01:47:48;;;;;;;37.67;22.05;;;;;;;7.59;76.75;101524.44;5073908;28;20039;-62
2022/03/16 01:50:13;;;;;;;37.75;21.05;;;;;;;7.47;78.31;101521.72;5075338;28;20034;-63
2022/03/16 01:52:40;;;;;;;52.35;23.58;;;;;;;7.45;79.06;101520.81;5056885;28;20135;-62
2022/03/16 01:55:06;;;;;;;61.58;20.48;;;;;;;7.75;76.08;101512.34;5074988;28;20041;-63
2022/03/16 01:57:34;;;;;;;59.42;20.90;;;;;;;8.29;74.78;101513.59;5074891;28;20037;-63
2022/03/16 02:00:01;;;;;;;34.33;18.92;;;;;;;7.65;77.10;101515.75;5057839;28;20042;-63
2022/03/16 02:02:26;;;;;;;28.83;14.93;;;;;;;7.98;76.06;101514.25;5074718;28;20044;-63
2022/03/16 02:04:51;;;;;;;24.27;14.50;;;;;;;8.07;75.25;101519.56;5075783;28;20025;-63
2022/03/16 02:07:17;;;;;;;29.75;15.32;;;;;;;8.45;73.57;101525.06;5074141;28;20032;-63
2022/03/16 02:09:42;;;;;;;21.63;13.70;;;;;;;8.43;73.28;101518.94;5075097;28;20028;-63
2022/03/16 02:12:11;;;;;;;21.52;13.23;;;;;;;8.44;73.05;101523.31;5074367;28;20080;-63
2022/03/16 02:14:37;;;;;;;24.77;14.23;;;;;;;8.54;72.69;101525.13;5072475;28;20514;-63
2022/03/16 02:17:03;;;;;;;23.10;14.07;;;;;;;8.71;72.25;101519.94;5074799;28;20123;-63
2022/03/16 02:19:28;;;;;;;23.20;13.13;;;;;;;8.60;72.90;101519.88;5074391;28;20043;-63
2022/03/16 02:22:01;;;;;;;17.73;11.98;;;;;;;8.35;74.59;101526.72;5074259;28;20024;-63
2022/03/16 02:24:29;;;;;;;;;;;;;;;8.58;74.10;101528.63;5074099;28;20388;-62
2022/03/16 02:26:55;;;;;;;24.38;10.88;;;;;;;8.24;74.95;101531.00;5072219;28;20011;-63
2022/03/16 02:29:21;;;;;;;29.20;12.85;;;;;;;7.77;76.25;101543.75;5073408;28;20036;-63
2022/03/16 02:31:46;;;;;;;18.45;10.82;;;;;;;7.61;77.80;101541.00;5073751;28;20031;-63
2022/03/16 02:34:12;;;;;;;20.17;11.40;;;;;;;7.59;78.32;101537.50;5074487;28;20067;-63
2022/03/16 02:36:37;;;;;;;21.65;10.57;;;;;;;7.53;78.89;101544.41;5073217;28;20060;-63
2022/03/16 02:39:03;;;;;;;14.55;8.93;;;;;;;7.48;79.37;101549.59;5074248;28;20034;-63
2022/03/16 02:41:28;;;;;;;19.20;11.13;;;;;;;7.54;81.71;101541.84;5069005;28;20033;-63
2022/03/16 02:43:53;;;;;;;15.20;9.10;;;;;;;7.44;80.13;101549.56;5054438;28;20350;-63
2022/03/16 02:46:19;;;;;;;16.80;9.05;;;;;;;7.48;80.32;101551.34;5064697;28;20048;-63
2022/03/16 02:48:44;;;;;;;13.43;9.32;;;;;;;7.49;80.17;101553.09;5074299;28;20041;-63
2022/03/16 02:51:10;;;;;;;12.50;8.55;;;;;;;7.51;79.94;101554.88;5072817;28;20047;-63
2022/03/16 02:53:35;;;;;;;13.43;8.95;;;;;;;7.61;79.38;101561.06;5073750;28;20048;-63
2022/03/16 02:56:01;;;;;;;13.73;9.45;;;;;;;7.57;79.75;101561.88;5073861;28;20043;-63
2022/03/16 02:58:26;;;;;;;35.65;11.77;;;;;;;7.48;81.12;101561.81;5072214;28;20116;-63
2022/03/16 03:00:52;;;;;;;13.48;8.90;;;;;;;7.49;80.29;101566.16;5073750;28;20107;-63
2022/03/16 03:03:17;;;;;;;15.75;10.70;;;;;;;7.50;80.22;101567.91;5074041;28;20031;-63
2022/03/16 03:05:43;;;;;;;16.02;10.95;;;;;;;7.53;79.97;101575.78;5071947;28;20543;-63
2022/03/16 03:08:09;;;;;;;15.02;10.30;;;;;;;7.51;79.98;101575.78;5073983;28;20459;-63
2022/03/16 03:10:34;;;;;;;13.57;9.05;;;;;;;7.60;79.51;101580.22;5073314;28;20115;-63
2022/03/16 03:12:59;;;;;;;15.82;10.35;;;;;;;7.61;79.18;101577.63;5073873;28;20041;-63
2022/03/16 03:15:25;;;;;;;12.63;9.18;;;;;;;7.68;78.71;101582.91;5073968;28;20365;-63
2022/03/16 03:17:50;;;;;;;11.25;8.35;;;;;;;7.71;78.48;101575.13;5073473;28;20526;-63
2022/03/16 03:20:16;;;;;;;11.52;8.57;;;;;;;7.67;78.48;101583.78;5073711;28;20093;-63
2022/03/16 03:22:41;;;;;;;14.25;10.27;;;;;;;7.67;78.40;101583.78;5073361;28;20047;-63
2022/03/16 03:25:12;;;;;;;16.73;8.98;;;;;;;7.61;78.71;101579.38;5073183;28;20395;-63
2022/03/16 03:27:38;;;;;;;13.77;9.60;;;;;;;7.52;78.95;101580.16;5071601;28;20028;-63
2022/03/16 03:30:05;;;;;;;14.98;10.10;;;;;;;7.46;79.93;101589.66;5073054;28;20035;-63
2022/03/16 03:32:31;;;;;;;14.80;9.80;;;;;;;7.38;80.15;101586.97;5072954;28;20071;-63
2022/03/16 03:34:56;;;;;;;14.20;10.57;;;;;;;7.35;79.94;101590.44;5073888;28;20036;-63
2022/03/16 03:37:22;;;;;;;16.90;10.90;;;;;;;7.20;81.39;101597.25;5072924;28;20375;-63
2022/03/16 03:39:48;;;;;;;17.92;10.25;;;;;;;7.27;80.70;101612.16;5072354;28;20024;-63
2022/03/16 03:42:14;;;;;;;28.77;12.27;;;;;;;7.22;81.54;101603.34;5073862;28;20047;-62
2022/03/16 03:44:39;;;;;;;16.83;11.20;;;;;;;7.27;81.14;101609.53;5072593;28;20033;-63
2022/03/16 03:47:09;;;;;;;16.48;11.32;;;;;;;7.18;81.46;101609.41;5062641;28;20036;-62
2022/03/16 03:49:36;;;;;;;19.08;11.25;;;;;;;7.27;80.70;101610.41;5071863;28;20028;-63
2022/03/16 03:52:03;;;;;;;15.82;10.15;;;;;;;7.27;80.26;101609.53;5071694;28;20032;-63
2022/03/16 03:54:29;;;;;;;14.38;9.13;;;;;;;7.21;81.09;101605.09;5072831;28;20036;-64
2022/03/16 03:56:54;;;;;;;13.75;9.50;;;;;;;7.06;81.70;101600.59;5072774;28;20033;-63
2022/03/16 03:59:20;;;;;;;14.05;10.05;;;;;;;7.13;81.17;101602.38;5073384;28;20076;-63
2022/03/16 04:01:46;;;;;;;15.55;8.95;;;;;;;6.94;82.64;101595.16;5073816;28;20044;-62
2022/03/16 04:04:12;;;;;;;15.65;9.82;;;;;;;6.86;82.96;101600.34;5059447;28;20036;-63
2022/03/16 04:06:38;;;;;;;20.50;9.07;;;;;;;6.80;83.69;101599.38;5075612;28;20132;-63
2022/03/16 04:09:04;;;;;;;21.48;9.68;;;;;;;6.79;83.81;101600.22;5075990;28;20119;-63
2022/03/16 04:11:30;;;;;;;18.80;10.10;;;;;;;6.76;84.20;101600.19;5055150;28;20384;-63
2022/03/16 04:13:55;;;;;;;24.80;9.30;;;;;;;6.71;84.26;101588.81;5057283;28;20025;-63
2022/03/16 04:16:21;;;;;;;45.25;10.15;;;;;;;6.70;84.74;101597.47;5074239;28;20048;-63
2022/03/16 04:18:46;;;;;;;19.15;9.18;;;;;;;6.77;84.18;101597.56;5076086;28;20093;-63
2022/03/16 04:21:12;;;;;;;23.83;9.63;;;;;;;6.74;84.44;101601.88;5077241;28;20045;-63
2022/03/16 04:23:37;;;;;;;23.75;9.80;;;;;;;6.62;85.66;101597.34;5075101;28;20032;-63
2022/03/16 04:26:02;;;;;;;24.58;10.55;;;;;;;6.63;85.73;101600.00;5076574;28;20399;-65
2022/03/16 04:28:28;;;;;;;48.63;11.05;;;;;;;6.62;85.82;101603.50;5075420;28;20438;-64
2022/03/16 04:30:53;;;;;;;43.45;12.23;;;;;;;6.57;86.39;101594.69;5064761;28;20086;-63
2022/03/16 04:33:19;;;;;;;38.80;11.95;;;;;;;6.52;87.08;101591.16;5075542;28;20066;-63
2022/03/16 04:35:44;;;;;;;22.58;10.63;;;;;;;6.56;86.77;101602.50;5075268;28;20029;-64
2022/03/16 04:38:10;;;;;;;25.75;11.57;;;;;;;6.70;85.64;101606.19;5074299;28;20041;-64
2022/03/16 04:40:36;;;;;;;17.83;9.50;;;;;;;6.75;84.75;101611.50;5074156;28;20036;-64
2022/03/16 04:43:01;;;;;;;20.23;10.18;;;;;;;6.66;85.67;101613.13;5075280;28;20110;-64
2022/03/16 04:45:27;;;;;;;21.42;11.48;;;;;;;6.76;85.09;101610.63;5074435;28;20476;-64
2022/03/16 04:47:52;;;;;;;28.52;10.88;;;;;;;6.87;84.28;101624.72;5075721;28;20037;-63
2022/03/16 04:50:18;;;;;;;42.30;12.63;;;;;;;6.70;85.79;101626.19;5075956;28;20039;-64
2022/03/16 04:52:48;;;;;;;58.83;12.10;;;;;;;6.72;85.81;101617.53;5074751;28;20067;-64
2022/03/16 04:55:14;;;;;;;25.23;10.63;;;;;;;6.86;85.01;101620.31;5071148;28;20041;-63
2022/03/16 04:57:41;;;;;;;53.13;12.52;;;;;;;6.56;87.93;101629.50;5053642;28;20035;-63
2022/03/16 05:00:07;;;;;;;37.95;11.02;;;;;;;6.59;88.12;101631.28;5072064;28;20557;-63
2022/03/16 05:02:33;;;;;;;34.67;12.07;;;;;;;6.65;87.44;101629.63;5046819;28;20127;-63
2022/03/16 05:04:58;;;;;;;48.30;12.20;;;;;;;6.64;87.36;101638.31;5074877;28;20064;-62
2022/03/16 05:07:24;;;;;;;32.53;11.60;;;;;;;6.56;88.29;101645.16;5036578;28;20045;-64
2022/03/16 05:09:49;;;;;;;29.80;12.10;;;;;;;6.59;88.68;101636.50;5058742;28;20041;-64
2022/03/16 05:12:14;;;;;;;29.90;11.65;;;;;;;6.61;88.90;101640.00;5075748;28;20037;-63
2022/03/16 05:14:40;;;;;;;41.13;12.27;;;;;;;6.61;88.48;101650.47;5074671;28;20120;-63
2022/03/16 05:17:05;;;;;;;26.77;10.70;;;;;;;6.60;89.00;101656.53;5075220;28;20041;-63
2022/03/16 05:19:31;;;;;;;25.52;10.13;;;;;;;6.56;88.85;101649.53;5075490;28;20501;-63
2022/03/16 05:21:57;;;;;;;29.52;11.15;;;;;;;6.45;90.15;101666.75;5075098;28;20057;-63
2022/03/16 05:24:24;;;;;;;34.15;11.88;;;;;;;6.61;88.84;101664.38;5038884;28;20036;-63
2022/03/16 05:26:50;;;;;;;25.60;11.48;;;;;;;6.62;88.32;101662.66;5074054;28;20384;-63
2022/03/16 05:29:15;;;;;;;31.30;11.15;;;;;;;6.72;87.77;101666.28;5073891;28;20028;-63
2022/03/16 05:31:41;;;;;;;20.60;10.70;;;;;;;6.80;86.73;101655.09;5074538;28;20102;-64
2022/03/16 05:34:06;;;;;;;31.35;10.93;;;;;;;6.82;86.84;101652.50;5075165;28;20400;-64
2022/03/16 05:36:31;;;;;;;26.15;9.65;;;;;;;6.96;85.62;101660.53;5075583;28;20044;-64
2022/03/16 05:38:57;;;;;;;15.48;9.57;;;;;;;6.96;85.61;101657.94;5074397;28;20533;-64
2022/03/16 05:41:24;;;;;;;24.35;11.10;;;;;;;6.99;85.64;101658.84;5075823;28;20051;-64
2022/03/16 05:43:50;;;;;;;17.88;9.80;;;;;;;7.14;84.35;101666.91;5073896;28;20061;-64
2022/03/16 05:46:15;;;;;;;27.30;9.50;;;;;;;7.19;84.26;101671.31;5074607;28;20429;-64
2022/03/16 05:48:41;;;;;;;20.13;8.40;;;;;;;7.39;82.10;101664.56;5074927;28;20028;-64
2022/03/16 05:51:08;;;;;;;29.83;10.23;;;;;;;7.36;82.24;101675.88;5073629;28;20031;-64
2022/03/16 05:53:33;;;;;;;24.65;10.18;;;;;;;7.33;82.18;101673.22;5075211;28;20151;-64
2022/03/16 05:55:59;;;;;;;25.35;10.43;;;;;;;7.28;82.56;101669.66;5074511;28;20082;-64
2022/03/16 05:58:24;;;;;;;21.67;10.63;;;;;;;7.44;81.29;101680.31;5074190;28;20170;-64
2022/03/16 06:00:50;;;;;;;24.65;10.65;;;;;;;7.55;80.54;101684.81;5074592;28;20032;-64
2022/03/16 06:03:15;;;;;;;24.00;10.23;;;;;;;7.45;80.79;101688.16;5073860;28;20111;-64
2022/03/16 06:05:41;;;;;;;18.02;10.80;;;;;;;7.41;81.47;101687.25;5055009;28;20035;-65
2022/03/16 06:08:06;;;;;;;19.48;10.25;;;;;;;7.52;81.38;101694.34;5071725;28;20040;-65
2022/03/16 06:10:32;;;;;;;25.60;11.77;;;;;;;7.35;81.80;101687.19;5075974;28;20033;-65
2022/03/16 06:13:00;;;;;;;30.70;12.07;;;;;;;7.38;81.48;101704.63;5067210;28;20041;-65
2022/03/16 06:15:29;;;;;;;21.98;10.70;;;;;;;7.44;81.11;101694.25;5071078;28;20029;-65
2022/03/16 06:17:56;;;;;;;33.47;13.20;;;;;;;7.37;82.22;101697.66;5070272;28;20033;-65
2022/03/16 06:20:22;;;;;;;27.23;12.52;;;;;;;7.16;83.21;101706.09;5051963;28;20063;-65
2022/03/16 06:22:47;;;;;;;27.25;10.88;;;;;;;7.36;81.88;101707.25;5072662;28;20072;-65
2022/03/16 06:25:13;;;;;;;29.50;11.10;;;;;;;7.41;81.69;101718.63;5069759;28;20528;-64
2022/03/16 06:27:39;;;;;;;19.38;10.75;;;;;;;7.44;81.47;101716.94;5066261;28;20040;-64
2022/03/16 06:30:05;;;;;;;28.25;12.05;;;;;;;7.44;81.46;101722.16;5072921;28;20049;-64
2022/03/16 06:32:30;;;;;;;31.75;12.60;;;;;;;7.41;81.65;101721.25;5056238;28;20064;-64
2022/03/16 06:34:56;;;;;;;43.53;12.80;;;;;;;7.26;82.66;101723.69;5073743;28;20094;-64
2022/03/16 06:37:21;;;;;;;24.38;12.50;;;;;;;7.33;82.29;101725.50;5073860;28;20075;-64
2022/03/16 06:39:47;;;;;;;22.95;12.13;;;;;;;7.31;82.20;101722.00;5073233;28;20051;-64
2022/03/16 06:42:12;;;;;;;27.13;11.85;;;;;;;7.53;80.67;101730.97;5074704;28;20040;-64
2022/03/16 06:44:37;;;;;;;26.08;11.98;;;;;;;7.58;80.55;101726.72;5074654;28;20039;-64
2022/03/16 06:47:03;;;;;;;25.88;12.45;;;;;;;7.63;80.13;101737.22;5074296;28;20543;-64
2022/03/16 06:49:28;;;;;;;26.92;12.65;;;;;;;7.70;80.18;101740.78;5073972;28;20024;-64
2022/03/16 06:51:54;;;;;;;35.38;14.27;;;;;;;7.72;79.74;101741.69;5074024;28;20055;-65
2022/03/16 06:54:19;;;;;;;30.15;14.18;;;;;;;7.60;80.30;101748.50;5074387;28;20483;-64
2022/03/16 06:56:44;;;;;;;34.13;14.48;;;;;;;7.59;80.23;101754.63;5074140;28;20115;-64
2022/03/16 06:59:10;;;;;;;35.95;14.93;;;;;;;7.55;80.67;101747.59;5074097;28;20036;-64
2022/03/16 07:01:35;;;;;;;24.10;12.55;;;;;;;7.54;80.54;101739.69;5074123;28;20039;-64
2022/03/16 07:04:01;;;;;;;21.50;11.82;;;;;;;7.69;79.83;101752.09;5073675;28;20047;-64
2022/03/16 07:06:26;;;;;;;40.03;14.75;;;;;;;7.71;79.92;101756.50;5072778;28;20040;-64
2022/03/16 07:08:52;;;;;;;35.35;14.77;;;;;;;7.68;80.18;101760.81;5071628;28;20036;-65
2022/03/16 07:11:17;;;;;;;39.13;16.73;;;;;;;7.61;80.66;101762.47;5073788;28;20035;-64
2022/03/16 07:14:30;;;;;;;57.38;15.68;;;;;;;7.62;80.77;101762.50;5073544;28;20040;-65
2022/03/16 07:16:29;;;;;;;43.97;16.92;;;;;;;7.40;82.12;101771.78;5059609;28;20044;-64
2022/03/16 07:18:55;;;;;;;59.50;15.82;;;;;;;7.19;83.75;101775.88;5072393;28;20044;-64
2022/03/16 07:21:21;;;;;;;43.50;16.27;;;;;;;7.21;84.25;101776.75;5054771;28;20395;-65
2022/03/16 07:23:46;;;;;;;38.75;16.92;;;;;;;7.24;84.54;101785.53;5072796;28;20032;-64
2022/03/16 07:26:11;;;;;;;71.80;17.70;;;;;;;7.20;84.76;101793.31;5072685;28;20040;-64
2022/03/16 07:28:37;;;;;;;68.13;18.08;;;;;;;7.22;84.75;101794.19;5073029;28;20377;-64
2022/03/16 07:31:02;;;;;;;54.08;17.45;;;;;;;7.22;85.34;101800.31;5073670;28;20029;-64
2022/03/16 07:33:28;;;;;;;53.55;18.90;;;;;;;7.27;84.52;101801.25;5072953;28;20091;-64
2022/03/16 07:35:53;;;;;;;39.00;17.50;;;;;;;7.40;83.52;101805.78;5073221;28;20136;-64
2022/03/16 07:38:19;;;;;;;39.63;17.08;;;;;;;7.49;83.23;101812.88;5073202;28;20036;-64
2022/03/16 07:40:45;;;;;;;51.00;17.88;;;;;;;7.45;83.47;101815.44;5068489;28;20124;-64
2022/03/16 07:43:11;;;;;;;49.17;18.00;;;;;;;7.52;82.81;101817.28;5053559;28;20119;-64
2022/03/16 07:45:37;;;;;;;48.55;18.65;;;;;;;7.47;83.22;101817.22;5066336;28;20480;-64
2022/03/16 07:48:03;;;;;;;48.13;18.88;;;;;;;7.39;84.39;101818.84;5072232;28;20033;-64
2022/03/16 07:50:29;;;;;;;44.92;18.63;;;;;;;7.62;82.74;101825.28;5055332;28;20044;-63
2022/03/16 07:52:55;;;;;;;38.28;17.40;;;;;;;7.85;81.57;101824.69;5072090;28;20044;-65
2022/03/16 07:55:21;;;;;;;32.00;16.65;;;;;;;8.01;80.65;101825.75;5071717;28;20483;-63
2022/03/16 07:57:46;;;;;;;33.60;17.85;;;;;;;8.15;79.03;101829.44;5072940;28;20039;-64
2022/03/16 08:00:13;;;;;;;33.42;17.75;;;;;;;8.28;78.45;101833.06;5072076;28;20127;-64
2022/03/16 08:02:40;;;;;;;38.55;19.42;;;;;;;8.41;77.94;101832.34;5071915;28;20028;-63
2022/03/16 08:05:06;;;;;;;42.80;21.65;;;;;;;8.36;77.60;101829.66;5033585;28;20128;-65
2022/03/16 08:07:32;;;;;;;37.08;18.20;;;;;;;8.38;77.57;101833.22;5083449;28;20043;-64
2022/03/16 08:09:59;;;;;;;36.75;18.35;;;;;;;8.34;77.26;101838.38;5070413;28;20029;-65
2022/03/16 08:12:25;;;;;;;34.58;17.33;;;;;;;8.25;78.13;101841.75;5070195;28;20028;-64
2022/03/16 08:14:51;;;;;;;42.80;18.70;;;;;;;8.13;78.58;101839.00;5073029;28;20097;-64
2022/03/16 08:17:17;;;;;;;35.58;18.52;;;;;;;8.19;78.35;101844.31;5072087;28;20087;-64
2022/03/16 08:19:43;;;;;;;38.95;20.25;;;;;;;8.23;78.41;101843.47;5051612;28;20037;-64
2022/03/16 08:22:08;;;;;;;41.35;20.85;;;;;;;8.27;78.18;101849.63;5052916;28;20040;-64
2022/03/16 08:24:34;;;;;;;41.80;19.48;;;;;;;8.30;77.96;101839.19;5067550;28;20468;-65
2022/03/16 08:27:00;;;;;;;41.92;21.38;;;;;;;8.32;78.03;101846.19;5052533;28;20041;-64
2022/03/16 08:29:25;;;;;;;45.65;22.45;;;;;;;8.26;78.52;101854.00;5052773;28;20366;-64
2022/03/16 08:31:51;;;;;;;49.22;22.42;;;;;;;8.41;77.84;101852.44;5058220;28;20064;-64
2022/03/16 08:34:18;;;;;;;39.53;18.90;;;;;;;8.45;77.46;101855.09;5072352;28;20433;-65
2022/03/16 08:36:44;;;;;;;42.58;19.30;;;;;;;8.63;76.62;101846.56;5070717;28;20028;-65
2022/03/16 08:39:09;;;;;;;57.92;24.50;;;;;;;8.78;76.09;101849.31;5051153;28;20469;-64
2022/03/16 08:41:35;;;;;;;45.88;22.60;;;;;;;8.81;76.00;101848.44;5052810;28;20370;-64
2022/03/16 08:44:02;;;;;;;45.15;22.25;;;;;;;8.80;76.14;101857.19;5052637;28;20475;-64
2022/03/16 08:46:28;;;;;;;40.53;21.85;;;;;;;8.81;75.65;101859.81;5053177;28;20033;-64
2022/03/16 08:48:54;;;;;;;44.97;22.52;;;;;;;8.86;74.99;101858.13;5053308;28;20029;-64
2022/03/16 08:51:19;;;;;;;38.42;20.60;;;;;;;8.96;74.85;101866.94;5063806;28;20032;-64
2022/03/16 08:53:45;;;;;;;39.75;19.95;;;;;;;8.89;74.43;101866.00;5076107;28;20076;-64
2022/03/16 08:56:11;;;;;;;39.80;18.63;;;;;;;9.04;74.03;101867.88;5074931;28;20039;-64
2022/03/16 08:58:37;;;;;;;36.08;18.98;;;;;;;9.07;73.92;101865.28;5074797;28;20032;-65
2022/03/16 09:01:03;;;;;;;41.65;21.15;;;;;;;8.92;74.52;101874.75;5073768;28;20028;-64
2022/03/16 09:03:28;;;;;;;45.08;21.05;;;;;;;8.99;74.38;101880.09;5074406;28;20029;-64
2022/03/16 09:05:54;;;;;;;51.53;22.60;;;;;;;8.80;75.28;101880.78;5074707;28;20032;-65
2022/03/16 09:08:19;;;;;;;41.53;23.05;;;;;;;8.59;76.46;101887.56;5070348;28;20127;-64
2022/03/16 09:10:47;;;;;;;48.13;22.83;;;;;;;8.78;75.71;101890.38;5056027;28;20033;-64
2022/03/16 09:13:15;;;;;;;44.88;23.17;;;;;;;8.72;76.12;101879.81;5072756;28;20036;-64
2022/03/16 09:15:44;;;;;;;40.72;21.90;;;;;;;8.86;75.65;101880.84;5073527;28;20598;-63
2022/03/16 09:18:10;;;;;;;39.30;20.45;;;;;;;9.06;74.90;101887.13;5073950;28;20033;-64
2022/03/16 09:20:37;;;;;;;41.58;21.88;;;;;;;9.13;74.49;101894.16;5066414;28;20489;-64
2022/03/16 09:23:03;;;;;;;43.88;21.45;;;;;;;9.10;74.57;101883.69;5054238;28;20075;-63
2022/03/16 09:25:28;;;;;;;37.17;19.90;;;;;;;9.14;74.31;101897.69;5069317;28;20090;-63
2022/03/16 09:27:54;;;;;;;44.10;21.95;;;;;;;9.18;73.80;101901.22;5075194;28;20028;-64
2022/03/16 09:30:21;;;;;;;42.03;21.48;;;;;;;9.23;73.88;101899.50;5075628;28;20472;-63
2022/03/16 09:32:46;;;;;;;47.55;24.35;;;;;;;9.26;73.65;101904.78;5073894;28;20033;-63
2022/03/16 09:35:12;;;;;;;49.13;23.85;;;;;;;9.19;73.94;101909.09;5074617;28;20424;-64
2022/03/16 09:37:37;;;;;;;49.80;24.58;;;;;;;8.96;75.30;101905.38;5087201;28;20043;-63
2022/03/16 09:40:04;;;;;;;47.03;24.48;;;;;;;8.99;75.46;101913.28;5093122;28;20040;-64
2022/03/16 09:42:31;;;;;;;50.83;23.70;;;;;;;9.10;74.80;101916.88;5077918;28;20037;-63
2022/03/16 09:45:01;;;;;;;46.92;23.67;;;;;;;9.08;74.65;101910.75;5057239;28;20097;-63
2022/03/16 09:47:27;;;;;;;50.35;25.70;;;;;;;9.17;74.52;101912.56;5073104;28;20033;-63
2022/03/16 09:49:53;;;;;;;48.15;24.58;;;;;;;9.18;74.06;101917.84;5073842;28;20064;-63
2022/03/16 09:52:19;;;;;;;49.53;25.27;;;;;;;9.25;73.73;101919.63;5074970;28;20053;-63
2022/03/16 09:54:46;;;;;;;52.28;27.92;;;;;;;9.24;73.99;101922.25;5073853;28;20035;-64
2022/03/16 09:57:11;;;;;;;51.83;27.35;;;;;;;9.31;73.54;101921.44;5072426;28;20039;-63
2022/03/16 09:59:38;;;;;;;48.03;24.33;;;;;;;9.33;73.63;101924.94;5056899;28;20399;-63
2022/03/16 10:02:06;;;;;;;43.17;24.73;;;;;;;9.48;73.01;101927.69;5073686;28;20105;-63
2022/03/16 10:04:36;;;;;;;50.08;25.75;;;;;;;9.27;73.55;101927.53;5073849;28;20036;-64
2022/03/16 10:07:04;;;;;;;41.10;22.17;;;;;;;9.17;74.12;101930.91;5057412;28;20032;-63
2022/03/16 10:15:07;;;;;;;48.15;23.95;;;;;;;8.95;75.53;101932.47;5074902;28;20093;-63
2022/03/16 10:17:45;;;;;;;37.78;20.70;;;;;;;9.12;74.90;101939.63;5073479;28;20031;-63
2022/03/16 10:20:22;;;;;;;38.05;20.70;;;;;;;9.18;74.74;101932.69;5074932;28;20064;-63
2022/03/16 10:23:04;;;;;;;45.67;23.95;;;;;;;9.23;74.40;101933.59;5074594;28;20031;-63
2022/03/16 10:25:35;;;;;;;38.30;22.03;;;;;;;9.26;75.33;101937.13;5074735;28;20035;-63
2022/03/16 10:28:18;;;;;;;39.38;22.77;;;;;;;9.26;74.56;101936.25;5074386;28;20028;-63
2022/03/16 10:31:02;;;;;;;37.10;20.02;;;;;;;9.38;73.66;101934.59;5073469;28;20072;-63
2022/03/16 10:33:49;;;;;;;44.00;25.58;;;;;;;9.24;73.50;101943.22;5073062;28;20032;-63
2022/03/16 10:36:17;;;;;;;43.20;24.13;;;;;;;9.07;74.07;101941.34;5073134;28;20123;-63
2022/03/16 10:38:58;;;;;;;42.85;24.13;;;;;;;9.02;73.77;101944.78;5071441;28;20147;-63
2022/03/16 10:47:14;;;;;;;32.05;19.30;;;;;;;9.25;72.51;101932.72;5073883;28;20094;-63
2022/03/16 10:49:41;;;;;;;29.52;19.83;;;;;;;9.36;72.24;101940.69;5071831;28;20119;-62
2022/03/16 10:52:14;;;;;;;30.05;18.58;;;;;;;9.38;71.50;101926.75;5072447;28;20040;-63
2022/03/16 10:54:40;;;;;;;;;;;;;;;9.45;70.99;101938.13;5073837;28;20032;-64
2022/03/16 10:57:11;;;;;;;29.30;16.90;;;;;;;9.42;71.41;101947.75;5071826;28;19917;-65
2022/03/16 10:59:38;;;;;;;23.75;15.13;;;;;;;9.57;70.71;101939.97;5082211;28;20045;-64
2022/03/16 11:02:05;;;;;;;25.42;15.82;;;;;;;9.40;70.91;101945.09;5054738;28;20041;-64
2022/03/16 11:04:35;;;;;;;25.17;15.93;;;;;;;9.41;70.95;101944.22;5071942;28;20043;-64
2022/03/16 11:07:02;;;;;;;27.17;17.40;;;;;;;9.24;70.93;101945.84;5070539;28;20032;-64
2022/03/16 11:09:28;;;;;;;29.55;18.02;;;;;;;9.06;71.59;101952.69;5072341;28;20063;-64
2022/03/16 11:14:40;;;;;;;27.67;18.00;;;;;;;8.96;71.87;101949.94;5072721;28;20043;-64
2022/03/16 11:17:06;;;;;;;27.08;17.23;;;;;;;9.07;71.43;101951.81;5072466;28;20029;-64
2022/03/16 11:19:33;;;;;;;29.40;18.58;;;;;;;9.01;71.42;101943.88;5075500;28;20488;-64
2022/03/16 11:22:08;;;;;;;29.55;19.00;;;;;;;9.02;71.28;101955.28;5071535;28;20024;-65
2022/03/16 11:24:40;;;;;;;31.13;19.08;;;;;;;9.02;71.32;101948.28;5068576;28;20025;-66
2022/03/16 11:27:34;;;;;;;31.30;18.67;;;;;;;9.07;71.27;101958.81;5072484;28;20047;-66
2022/03/16 11:30:26;;;;;;;28.70;18.58;;;;;;;9.08;71.18;101947.44;5073445;28;20036;-67